Time;durP1;ratioP1;P1;durP2;ratioP2;P2;SDS_P1;SDS_P2;PMS_P1;PMS_P2;Temp;Humidity;BMP_temperature;BMP_pressure;BME280_temperature;BME280_humidity;BME280_pressure;Samples;Min_cycle;Max_cycle;Signal;HPM_P1;HPM_P2
2023/01/29 00:01:04;;;;;;;46.63;18.40;;;;;;;;;;5012107;28;20404;-75
2023/01/29 00:03:30;;;;;;;;;;;;;;;;;;5024427;28;20125;-75
2023/01/29 00:05:55;;;;;;;46.33;18.20;;;;;;;;;;5024671;28;20011;-75
2023/01/29 00:08:20;;;;;;;44.42;18.15;;;;;;;;;;5004891;28;20034;-75
2023/01/29 00:10:46;;;;;;;43.17;18.65;;;;;;;;;;5007470;28;20047;-76
2023/01/29 00:13:12;;;;;;;41.75;17.25;;;;;;;;;;5007588;28;20380;-76
2023/01/29 00:15:56;;;;;;;43.95;17.63;;;;;;;;;;5007703;28;20022;-75
2023/01/29 00:18:21;;;;;;;44.17;17.55;;;;;;;;;;5001266;28;20475;-76
2023/01/29 00:20:47;;;;;;;45.55;18.17;;;;;;;;;;5008540;28;20022;-76
2023/01/29 00:23:12;;;;;;;43.50;17.63;;;;;;;;;;5023583;28;20037;-75
2023/01/29 00:25:37;;;;;;;48.27;17.27;;;;;;;;;;5010761;28;20353;-75
2023/01/29 00:28:02;;;;;;;39.58;17.25;;;;;;;;;;5006538;28;20026;-75
2023/01/29 00:30:28;;;;;;;43.35;18.33;;;;;;;;;;5008429;28;20026;-75
2023/01/29 00:32:53;;;;;;;43.10;17.10;;;;;;;;;;5006851;28;20388;-75
2023/01/29 00:35:18;;;;;;;42.13;17.93;;;;;;;;;;5009472;28;20297;-75
2023/01/29 00:37:43;;;;;;;41.37;17.40;;;;;;;;;;5009700;28;20287;-75
2023/01/29 00:40:09;;;;;;;47.33;17.90;;;;;;;;;;5004971;28;20623;-75
2023/01/29 00:45:18;;;;;;;46.80;18.35;;;;;;;;;;5011498;28;20675;-76
2023/01/29 00:47:43;;;;;;;40.15;17.13;;;;;;;;;;5009750;28;20112;-76
2023/01/29 00:50:10;;;;;;;39.13;16.93;;;;;;;;;;5010033;28;20030;-75
2023/01/29 00:52:35;;;;;;;49.97;18.95;;;;;;;;;;5023794;28;20301;-74
2023/01/29 00:55:01;;;;;;;46.10;17.70;;;;;;;;;;5009232;28;20037;-76
2023/01/29 00:57:27;;;;;;;42.38;18.00;;;;;;;;;;5007512;28;20349;-76
2023/01/29 00:59:53;;;;;;;41.78;17.55;;;;;;;;;;5004971;28;20034;-76
2023/01/29 01:05:04;;;;;;;46.58;18.27;;;;;;;;;;5007023;28;20511;-76
2023/01/29 01:07:30;;;;;;;43.78;18.13;;;;;;;;;;5007819;28;20722;-75
2023/01/29 01:12:39;;;;;;;43.08;17.20;;;;;;;;;;5009554;28;20072;-76
2023/01/29 01:15:05;;;;;;;40.53;17.60;;;;;;;;;;5006610;28;20798;-75
2023/01/29 01:17:30;;;;;;;46.33;19.20;;;;;;;;;;5009047;28;20391;-76
2023/01/29 01:19:55;;;;;;;45.53;18.07;;;;;;;;;;5007505;28;20030;-76
2023/01/29 01:22:20;;;;;;;42.70;17.60;;;;;;;;;;5024719;28;20037;-76
2023/01/29 01:24:46;;;;;;;41.88;17.50;;;;;;;;;;5011171;28;20264;-76
2023/01/29 01:27:11;;;;;;;43.73;17.80;;;;;;;;;;5007814;28;20053;-75
2023/01/29 01:29:37;;;;;;;46.45;18.55;;;;;;;;;;5008247;28;20279;-76
2023/01/29 01:32:03;;;;;;;41.33;17.63;;;;;;;;;;5008337;28;20021;-75
2023/01/29 01:34:28;;;;;;;45.80;18.42;;;;;;;;;;5010027;28;20029;-76
2023/01/29 01:36:57;;;;;;;49.90;18.53;;;;;;;;;;5009566;28;20072;-75
2023/01/29 01:39:22;;;;;;;45.93;18.27;;;;;;;;;;5008345;28;20030;-75
2023/01/29 01:41:48;;;;;;;42.22;17.33;;;;;;;;;;5008645;28;20120;-76
2023/01/29 01:44:32;;;;;;;42.63;18.03;;;;;;;;;;5024563;28;20053;-76
2023/01/29 01:46:59;;;;;;;45.85;17.48;;;;;;;;;;5024327;28;20275;-76
2023/01/29 01:49:24;;;;;;;40.70;17.15;;;;;;;;;;5007762;28;20096;-76
2023/01/29 01:51:51;;;;;;;41.30;18.30;;;;;;;;;;5009777;28;20030;-76
2023/01/29 01:54:19;;;;;;;42.45;17.60;;;;;;;;;;5007711;28;20718;-75
2023/01/29 01:56:45;;;;;;;42.03;17.08;;;;;;;;;;5012434;28;20028;-76
2023/01/29 01:59:13;;;;;;;38.38;16.90;;;;;;;;;;5008728;28;20051;-76
2023/01/29 02:01:41;;;;;;;38.42;16.67;;;;;;;;;;5009939;28;20025;-74
2023/01/29 02:10:07;;;;;;;40.75;16.80;;;;;;;;;;5008913;28;20044;-76
2023/01/29 02:12:32;;;;;;;39.83;16.45;;;;;;;;;;5007265;28;20053;-76
2023/01/29 02:14:58;;;;;;;47.58;18.20;;;;;;;;;;5009404;28;20085;-76
2023/01/29 02:17:23;;;;;;;40.47;16.17;;;;;;;;;;5024089;28;20457;-76
2023/01/29 02:19:54;;;;;;;43.23;18.00;;;;;;;;;;5010500;28;20163;-76
2023/01/29 02:25:16;;;;;;;40.25;16.67;;;;;;;;;;5007991;28;20562;-76
2023/01/29 02:27:47;;;;;;;43.30;17.20;;;;;;;;;;5008147;28;20038;-76
2023/01/29 02:30:31;;;;;;;40.80;17.27;;;;;;;;;;5005494;28;20294;-76
2023/01/29 02:33:08;;;;;;;42.42;16.80;;;;;;;;;;5002862;28;20029;-76
2023/01/29 02:35:37;;;;;;;45.30;17.42;;;;;;;;;;5006518;28;20087;-75
2023/01/29 02:38:21;;;;;;;44.13;18.15;;;;;;;;;;5022792;28;20061;-77
2023/01/29 02:40:53;;;;;;;43.55;17.00;;;;;;;;;;5004839;28;20040;-77
2023/01/29 02:43:24;;;;;;;41.83;17.38;;;;;;;;;;5005085;28;20033;-75
2023/01/29 02:45:52;;;;;;;44.10;17.60;;;;;;;;;;5005960;28;20689;-76
2023/01/29 02:48:19;;;;;;;39.97;17.05;;;;;;;;;;5004578;28;20074;-76
2023/01/29 02:51:09;;;;;;;38.78;16.50;;;;;;;;;;5005743;28;20096;-76
2023/01/29 02:53:37;;;;;;;40.70;17.25;;;;;;;;;;5011724;28;20033;-76
2023/01/29 02:56:06;;;;;;;44.05;18.15;;;;;;;;;;5012473;28;20029;-76
2023/01/29 02:58:50;;;;;;;45.97;18.77;;;;;;;;;;5007916;28;20040;-72
2023/01/29 03:01:30;;;;;;;44.53;17.90;;;;;;;0.67;nan;101224.22;5023290;28;20034;-73
2023/01/29 03:04:00;;;;;;;42.67;17.33;;;;;;;-0.01;nan;101118.94;5008556;28;20077;-73
2023/01/29 03:06:40;;;;;;;43.53;18.23;;;;;;;0.08;nan;101131.06;5008202;28;20042;-73
2023/01/29 03:12:33;;;;;;;42.40;17.58;;;;;;;-0.01;nan;101140.47;5009171;28;20121;-72
2023/01/29 03:15:15;;;;;;;43.50;17.88;;;;;;;-0.01;nan;101147.41;5000750;28;20097;-72
2023/01/29 03:18:05;;;;;;;39.65;16.65;;;;;;;-0.02;nan;101141.44;5009896;28;20033;-72
2023/01/29 03:20:37;;;;;;;42.08;16.95;;;;;;;-0.10;nan;101130.13;5004938;28;20128;-72
2023/01/29 03:23:09;;;;;;;41.47;17.08;;;;;;;-0.07;nan;101147.97;5008411;28;20157;-71
2023/01/29 03:34:22;;;;;;;44.28;16.95;;;;;;;-0.14;nan;101154.66;5009654;28;20041;-72
2023/01/29 03:36:54;;;;;;;36.97;15.60;;;;;;;-0.05;nan;101149.47;5009913;28;20033;-72
2023/01/29 03:39:20;;;;;;;40.38;17.02;;;;;;;-0.04;nan;101163.22;5024153;28;20869;-72
2023/01/29 03:41:54;;;;;;;39.85;17.42;;;;;;;-0.05;nan;101162.44;5023338;28;20032;-72
2023/01/29 03:44:20;;;;;;;41.80;17.08;;;;;;;-0.05;nan;101172.78;5025351;28;20129;-72
2023/01/29 03:46:57;;;;;;;42.60;16.50;;;;;;;-0.19;nan;101162.84;5008310;28;20052;-72
2023/01/29 03:49:33;;;;;;;41.53;16.05;;;;;;;-0.10;nan;101166.34;5023507;28;20045;-71
2023/01/29 03:52:13;;;;;;;43.70;16.45;;;;;;;-0.02;nan;101182.03;5008026;28;20029;-72
2023/01/29 03:54:59;;;;;;;40.05;16.20;;;;;;;-0.12;nan;101170.84;5008701;28;20029;-72
2023/01/29 03:57:44;;;;;;;40.83;15.95;;;;;;;-0.09;nan;101175.78;5009890;28;20491;-72
2023/01/29 04:00:17;;;;;;;44.30;17.67;;;;;;;-0.08;nan;101180.78;5009337;28;20045;-73
2023/01/29 04:02:54;;;;;;;41.90;16.10;;;;;;;-0.04;nan;101186.53;5008696;28;20117;-72
2023/01/29 04:05:23;;;;;;;40.80;17.45;;;;;;;-0.15;nan;101165.94;5009861;28;20025;-73
2023/01/29 04:07:51;;;;;;;;;;;;;;;-0.02;nan;101179.44;5008263;28;20075;-73
2023/01/29 04:10:21;;;;;;;40.47;15.95;;;;;;;-0.15;nan;101160.78;5006096;28;20031;-71
2023/01/29 04:12:49;;;;;;;40.35;15.98;;;;;;;-0.24;nan;101152.03;5006043;28;20113;-71
2023/01/29 04:15:16;;;;;;;36.63;16.35;;;;;;;-0.16;nan;101164.31;5005723;28;20049;-72
2023/01/29 04:17:48;;;;;;;40.25;16.15;;;;;;;-0.20;nan;101163.75;5007891;28;20060;-72
2023/01/29 04:20:13;;;;;;;36.63;15.93;;;;;;;-0.22;nan;101153.56;5004199;28;20030;-73
2023/01/29 04:22:42;;;;;;;40.17;16.80;;;;;;;-0.13;nan;101158.88;5005682;28;20871;-75
2023/01/29 04:25:25;;;;;;;37.33;15.75;;;;;;;-0.19;nan;101154.22;5005076;28;20029;-72
2023/01/29 04:28:09;;;;;;;38.90;16.58;;;;;;;-0.03;nan;101167.44;5007254;28;20050;-71
2023/01/29 04:30:59;;;;;;;40.33;16.27;;;;;;;-0.19;nan;101162.00;5017056;28;20022;-72
2023/01/29 04:33:46;;;;;;;42.28;16.85;;;;;;;-0.09;nan;101174.00;5006250;28;20069;-72
2023/01/29 04:36:15;;;;;;;39.88;15.75;;;;;;;-0.07;nan;101176.47;5004149;28;20034;-72
2023/01/29 04:39:03;;;;;;;39.45;16.17;;;;;;;-0.14;nan;101171.00;5022208;28;20026;-72
2023/01/29 04:41:32;;;;;;;39.40;15.77;;;;;;;-0.11;nan;101173.31;5006303;28;20105;-72
2023/01/29 04:44:15;;;;;;;32.47;13.35;;;;;;;-0.14;nan;101180.53;5004981;28;20752;-72
2023/01/29 04:47:07;;;;;;;42.05;16.73;;;;;;;-0.14;nan;101183.13;5006714;28;20034;-72
2023/01/29 04:49:37;;;;;;;41.05;15.85;;;;;;;-0.17;nan;101184.19;5006323;28;20046;-72
2023/01/29 04:55:19;;;;;;;39.10;17.00;;;;;;;-0.22;nan;101181.19;5007249;28;20041;-72
2023/01/29 04:58:09;;;;;;;36.47;15.13;;;;;;;-0.22;nan;101194.13;5003548;28;20511;-72
2023/01/29 05:00:43;;;;;;;38.72;15.50;;;;;;;-0.22;nan;101194.97;5004695;28;20030;-72
2023/01/29 05:03:12;;;;;;;34.95;14.85;;;;;;;-0.33;nan;101184.75;5022286;28;20079;-72
2023/01/29 05:05:41;;;;;;;33.93;13.40;;;;;;;-0.26;nan;101190.22;5004844;28;20029;-72
2023/01/29 05:08:28;;;;;;;39.33;15.68;;;;;;;-0.24;nan;101199.47;5000564;28;20157;-72
2023/01/29 05:10:55;;;;;;;37.20;15.18;;;;;;;-0.22;nan;101186.38;5006076;28;20100;-72
2023/01/29 05:13:22;;;;;;;44.47;18.23;;;;;;;-0.29;nan;101187.88;4962964;28;1204208;-73
2023/01/29 05:15:51;;;;;;;43.75;17.10;;;;;;;-0.33;nan;101187.34;5006272;28;20033;-72
2023/01/29 05:18:16;;;;;;;;;;;;;;;;;;5007186;28;20029;-73
2023/01/29 05:20:42;;;;;;;39.23;15.87;;;;;;;;;;5008052;28;20287;-72
2023/01/29 05:23:09;;;;;;;44.05;16.27;;;;;;;;;;5006156;28;20179;-72
2023/01/29 05:25:53;;;;;;;44.75;17.52;;;;;;;;;;5009949;28;20590;-72
2023/01/29 05:28:19;;;;;;;39.40;15.55;;;;;;;-0.02;nan;101255.34;5008822;28;20116;-73
2023/01/29 05:30:49;;;;;;;40.85;16.30;;;;;;;-0.45;nan;101189.22;5007670;28;20152;-72
2023/01/29 05:33:16;;;;;;;44.50;16.77;;;;;;;-0.31;nan;101213.91;5005141;28;20678;-73
2023/01/29 05:35:41;;;;;;;44.15;16.27;;;;;;;-0.34;nan;101216.72;5008796;28;20502;-72
2023/01/29 05:38:07;;;;;;;39.13;15.88;;;;;;;-0.44;nan;101200.38;5008265;28;20113;-72
2023/01/29 05:40:33;;;;;;;46.78;16.70;;;;;;;-0.38;nan;101207.63;5005523;28;20305;-75
2023/01/29 05:42:58;;;;;;;38.72;16.30;;;;;;;-0.45;nan;101203.94;5007146;28;20515;-72
2023/01/29 05:45:25;;;;;;;40.83;16.60;;;;;;;-0.34;nan;101208.97;5008107;28;20801;-73
2023/01/29 05:47:54;;;;;;;42.78;17.00;;;;;;;-0.29;nan;101217.16;5007225;28;20033;-72
2023/01/29 05:50:20;;;;;;;43.50;17.05;;;;;;;-0.43;nan;101214.97;5020061;28;20455;-72
2023/01/29 05:52:45;;;;;;;40.00;15.65;;;;;;;-0.35;nan;101225.47;5006981;28;20045;-72
2023/01/29 05:55:11;;;;;;;42.22;16.42;;;;;;;-0.38;nan;101228.31;5006295;28;20040;-71
2023/01/29 05:57:36;;;;;;;45.40;17.70;;;;;;;-0.33;nan;101236.50;5005499;28;20117;-71
2023/01/29 06:00:03;;;;;;;46.22;16.95;;;;;;;-0.39;nan;101223.25;5004963;28;20041;-72
2023/01/29 06:02:30;;;;;;;45.90;17.73;;;;;;;-0.40;nan;101219.88;5002411;28;20640;-73
2023/01/29 06:05:14;;;;;;;46.03;17.65;;;;;;;-0.30;nan;101240.59;5002008;28;20421;-72
2023/01/29 06:07:43;;;;;;;48.75;17.45;;;;;;;-0.28;nan;101254.22;5003963;28;20038;-73
2023/01/29 06:10:11;;;;;;;42.70;17.75;;;;;;;-0.34;nan;101242.59;5003629;28;20064;-74
2023/01/29 06:12:37;;;;;;;39.97;16.25;;;;;;;-0.41;nan;101227.75;5003866;28;20018;-75
2023/01/29 06:15:08;;;;;;;42.50;16.40;;;;;;;-0.46;nan;101231.53;5002510;28;20060;-74
2023/01/29 06:17:34;;;;;;;44.60;16.80;;;;;;;-0.33;nan;101254.63;5022103;28;20034;-75
2023/01/29 06:19:59;;;;;;;46.83;17.63;;;;;;;-0.35;nan;101259.09;5003441;28;20026;-74
2023/01/29 06:22:25;;;;;;;44.00;16.75;;;;;;;-0.46;nan;101247.06;5006759;28;20080;-73
2023/01/29 06:24:50;;;;;;;46.80;17.58;;;;;;;-0.39;nan;101249.94;5008111;28;20101;-73
2023/01/29 06:27:16;;;;;;;45.42;17.25;;;;;;;-0.30;nan;101249.16;5021336;28;20038;-73
2023/01/29 06:29:41;;;;;;;47.92;17.58;;;;;;;-0.25;nan;101259.94;5003470;28;20538;-71
2023/01/29 06:32:07;;;;;;;47.10;18.05;;;;;;;-0.26;nan;101260.09;5018797;28;20114;-73
2023/01/29 06:34:32;;;;;;;48.22;18.08;;;;;;;-0.28;nan;101264.56;5002232;28;20037;-72
2023/01/29 06:36:57;;;;;;;41.97;16.33;;;;;;;-0.26;nan;101276.41;5006883;28;20562;-73
2023/01/29 06:39:23;;;;;;;41.78;16.38;;;;;;;-0.49;nan;101242.16;5005367;28;20033;-73
2023/01/29 06:42:07;;;;;;;48.25;18.42;;;;;;;-0.32;nan;101274.34;5002044;28;20034;-73
2023/01/29 06:44:33;;;;;;;45.45;17.23;;;;;;;-0.40;nan;101269.03;5006631;28;20036;-74
2023/01/29 06:46:58;;;;;;;47.28;16.52;;;;;;;-0.31;nan;101277.75;5003263;28;20588;-72
2023/01/29 06:49:23;;;;;;;41.45;16.05;;;;;;;-0.43;nan;101267.53;5005614;28;20124;-72
2023/01/29 06:51:49;;;;;;;41.65;15.88;;;;;;;-0.36;nan;101283.34;5006619;28;20029;-74
2023/01/29 06:54:14;;;;;;;40.10;15.40;;;;;;;-0.36;nan;101282.50;5004536;28;20901;-73
2023/01/29 06:56:39;;;;;;;42.55;15.32;;;;;;;-0.34;nan;101286.59;5001436;28;20125;-74
2023/01/29 06:59:05;;;;;;;42.10;16.25;;;;;;;-0.32;nan;101289.06;5004650;28;20029;-74
2023/01/29 07:04:06;;;;;;;41.35;15.63;;;;;;;-0.33;nan;101301.19;5719691;23;20075;-68
2023/01/29 07:06:31;;;;;;;42.90;15.77;;;;;;;-0.32;nan;101302.81;4997592;28;20718;-67
2023/01/29 07:08:56;;;;;;;44.67;17.08;;;;;;;-0.57;nan;101261.91;4994016;28;20030;-69
2023/01/29 07:11:22;;;;;;;42.08;16.40;;;;;;;-0.36;nan;101298.03;5000323;28;20059;-68
2023/01/29 07:13:48;;;;;;;39.33;14.82;;;;;;;-0.37;nan;101296.41;4998035;28;20053;-69
2023/01/29 07:16:13;;;;;;;37.92;14.73;;;;;;;-0.40;nan;101284.56;4998656;28;20033;-69
2023/01/29 07:18:38;;;;;;;40.22;15.77;;;;;;;-0.38;nan;101297.34;4997613;28;20033;-68
2023/01/29 07:21:05;;;;;;;45.20;16.77;;;;;;;-0.32;nan;101308.00;5000060;28;20026;-69
2023/01/29 07:23:31;;;;;;;39.20;15.23;;;;;;;-0.31;nan;101299.28;4999582;28;20104;-68
2023/01/29 07:26:01;;;;;;;44.75;15.63;;;;;;;-0.29;nan;101302.56;4995769;28;20132;-69
2023/01/29 07:28:26;;;;;;;;;;;;;;;-0.25;nan;101311.69;4996599;28;20038;-68
2023/01/29 07:30:55;;;;;;;42.37;17.27;;;;;;;-0.35;nan;101291.94;4997389;28;20397;-70
2023/01/29 07:33:21;;;;;;;;;;;;;;;-0.24;nan;101312.50;4999692;28;20287;-70
2023/01/29 07:35:46;;;;;;;46.20;15.75;;;;;;;-0.29;nan;101305.16;5012406;28;19914;-70
2023/01/29 07:38:12;;;;;;;46.03;16.83;;;;;;;-0.29;nan;101309.50;4999962;28;20026;-70
2023/01/29 07:40:37;;;;;;;50.45;18.13;;;;;;;-0.18;nan;101324.13;5022578;28;20527;-69
2023/01/29 07:43:05;;;;;;;45.97;18.77;;;;;;;-0.45;nan;101281.53;5017328;28;20029;-69
2023/01/29 07:45:33;;;;;;;45.88;18.02;;;;;;;-0.16;nan;101319.63;5002555;28;20048;-69
2023/01/29 07:47:58;;;;;;;38.33;14.77;;;;;;;-0.19;nan;101327.66;5006218;28;20033;-71
2023/01/29 07:50:25;;;;;;;44.25;16.25;;;;;;;-0.18;nan;101332.69;5000735;28;20037;-69
2023/01/29 07:52:52;;;;;;;34.08;14.13;;;;;;;-0.16;nan;101335.97;5001506;28;20262;-69
2023/01/29 07:55:18;;;;;;;37.10;14.13;;;;;;;-0.19;nan;101325.06;5002273;28;20033;-69
2023/01/29 07:57:43;;;;;;;38.15;15.45;;;;;;;-0.13;nan;101333.13;5001591;28;20022;-70
2023/01/29 08:00:10;;;;;;;35.58;13.63;;;;;;;-0.17;nan;101312.81;5000651;28;20038;-70
2023/01/29 08:02:35;;;;;;;37.17;14.35;;;;;;;-0.12;nan;101332.19;5003751;28;20030;-66
2023/01/29 08:05:01;;;;;;;43.28;15.52;;;;;;;-0.18;nan;101322.34;5000694;28;20037;-71
2023/01/29 08:07:26;;;;;;;34.80;14.30;;;;;;;-0.06;nan;101338.59;4997578;28;20036;-70
2023/01/29 08:09:51;;;;;;;40.58;16.38;;;;;;;-0.07;nan;101327.44;4999268;28;20113;-70
2023/01/29 08:12:17;;;;;;;38.70;14.20;;;;;;;-0.08;nan;101315.41;5003160;28;20157;-68
2023/01/29 08:14:44;;;;;;;35.15;14.15;;;;;;;0.04;nan;101336.84;4994693;28;20113;-71
2023/01/29 08:17:10;;;;;;;34.33;13.60;;;;;;;0.02;nan;101330.16;4999729;28;20538;-70
2023/01/29 08:19:36;;;;;;;32.80;13.70;;;;;;;0.06;nan;101344.50;4997211;28;20034;-71
2023/01/29 08:22:02;;;;;;;32.13;12.93;;;;;;;0.04;nan;101336.84;4998063;28;20018;-70
2023/01/29 08:24:28;;;;;;;31.38;13.45;;;;;;;0.08;nan;101335.63;5000982;28;20391;-70
2023/01/29 08:26:53;;;;;;;31.77;12.88;;;;;;;0.07;nan;101333.97;5000277;28;20022;-71
2023/01/29 08:29:19;;;;;;;32.05;13.57;;;;;;;0.10;nan;101338.91;4999915;28;20607;-70
2023/01/29 08:31:44;;;;;;;35.35;13.23;;;;;;;0.20;nan;101342.34;4999965;28;20570;-70
2023/01/29 08:34:09;;;;;;;29.95;11.52;;;;;;;-0.07;nan;101295.53;4998930;28;20033;-70
2023/01/29 08:36:35;;;;;;;31.33;13.05;;;;;;;0.25;nan;101348.91;4998032;28;20033;-71
2023/01/29 08:39:00;;;;;;;32.03;12.35;;;;;;;0.15;nan;101331.56;4999205;28;20029;-70
2023/01/29 08:41:26;;;;;;;28.25;11.77;;;;;;;0.26;nan;101343.56;4999905;28;20033;-71
2023/01/29 08:43:51;;;;;;;28.85;12.70;;;;;;;0.28;nan;101335.66;4998074;28;20026;-72
2023/01/29 08:46:16;;;;;;;30.42;12.27;;;;;;;0.35;nan;101349.72;4999763;28;20037;-70
2023/01/29 08:48:42;;;;;;;34.25;12.68;;;;;;;0.45;nan;101365.28;5002793;28;20431;-70
2023/01/29 08:51:07;;;;;;;31.80;12.52;;;;;;;0.40;nan;101347.53;5016063;28;20040;-70
2023/01/29 08:53:33;;;;;;;32.33;12.25;;;;;;;0.52;nan;101354.22;5003414;28;20423;-70
2023/01/29 08:55:58;;;;;;;27.30;12.10;;;;;;;0.56;nan;101358.19;4995226;28;20092;-74
2023/01/29 08:58:24;;;;;;;32.72;13.23;;;;;;;0.64;nan;101355.72;5001515;28;20025;-74
2023/01/29 09:00:49;;;;;;;32.22;12.95;;;;;;;0.78;nan;101364.88;4998543;28;20030;-74
2023/01/29 09:03:14;;;;;;;29.83;12.40;;;;;;;0.73;nan;101348.91;4996762;28;20026;-73
2023/01/29 09:05:40;;;;;;;27.92;11.30;;;;;;;0.74;nan;101363.53;5000560;28;20448;-73
2023/01/29 09:08:08;;;;;;;26.80;11.40;;;;;;;0.68;nan;101345.09;5020357;28;20041;-73
2023/01/29 09:10:33;;;;;;;30.73;12.02;;;;;;;0.69;nan;101357.91;4997920;28;20087;-73
2023/01/29 09:12:59;;;;;;;27.40;11.32;;;;;;;0.64;nan;101347.13;5004366;28;20065;-71
2023/01/29 09:15:24;;;;;;;32.42;12.30;;;;;;;0.73;nan;101350.69;4997827;28;20034;-73
2023/01/29 09:17:50;;;;;;;30.65;11.85;;;;;;;0.73;nan;101359.28;5002818;28;20083;-73
2023/01/29 09:20:16;;;;;;;32.90;12.70;;;;;;;0.71;nan;101360.38;5003499;28;20040;-73
2023/01/29 09:22:41;;;;;;;33.38;12.85;;;;;;;0.64;nan;101342.78;4998635;28;20040;-74
2023/01/29 09:25:07;;;;;;;32.08;11.88;;;;;;;0.69;nan;101339.75;5016529;28;20508;-72
2023/01/29 09:27:33;;;;;;;30.48;12.23;;;;;;;0.73;nan;101351.50;4998407;28;20029;-73
2023/01/29 09:29:58;;;;;;;36.03;13.30;;;;;;;0.65;nan;101328.06;5000632;28;20044;-72
2023/01/29 09:32:24;;;;;;;29.35;12.07;;;;;;;0.68;nan;101329.56;4998071;28;20042;-73
2023/01/29 09:34:49;;;;;;;29.52;11.82;;;;;;;0.73;nan;101330.78;5000047;28;20026;-72
2023/01/29 09:37:16;;;;;;;33.85;13.40;;;;;;;0.83;nan;101347.13;4999805;28;20080;-73
2023/01/29 09:39:42;;;;;;;29.65;13.35;;;;;;;0.83;nan;101334.16;4999899;28;20023;-72
2023/01/29 09:42:16;;;;;;;30.92;11.90;;;;;;;0.91;nan;101346.47;4995747;28;20049;-72
2023/01/29 09:44:54;;;;;;;31.20;12.98;;;;;;;0.99;nan;101349.16;4999516;28;20026;-72
2023/01/29 09:47:22;;;;;;;31.90;12.65;;;;;;;0.96;nan;101333.06;4999098;28;20038;-72
2023/01/29 09:50:01;;;;;;;28.17;11.50;;;;;;;1.03;nan;101342.75;4999520;28;20500;-71
2023/01/29 09:52:26;;;;;;;24.35;9.75;;;;;;;1.13;nan;101345.34;4987731;28;20295;-72
2023/01/29 09:55:13;;;;;;;20.17;8.40;;;;;;;1.17;nan;101345.84;5016645;28;20034;-72
2023/01/29 09:57:49;;;;;;;22.67;9.10;;;;;;;1.21;nan;101340.25;4996487;28;20033;-72
2023/01/29 10:00:21;;;;;;;20.13;8.63;;;;;;;1.26;nan;101332.84;4998670;28;20046;-72
2023/01/29 10:02:47;;;;;;;19.25;8.88;;;;;;;1.29;nan;101336.94;5011440;28;20034;-72
2023/01/29 10:05:38;;;;;;;22.95;8.90;;;;;;;1.33;nan;101337.50;4996704;28;20743;-73
2023/01/29 10:08:19;;;;;;;19.85;8.23;;;;;;;1.29;nan;101331.75;5002752;28;20038;-73
2023/01/29 10:10:47;;;;;;;20.45;8.05;;;;;;;1.32;nan;101333.25;4997878;28;20065;-74
2023/01/29 10:13:52;;;;;;;20.23;8.43;;;;;;;1.29;nan;101331.75;5002049;28;20034;-75
2023/01/29 10:16:53;;;;;;;18.23;7.30;;;;;;;1.31;nan;101324.66;4997675;28;20131;-74
2023/01/29 10:19:40;;;;;;;18.85;7.30;;;;;;;1.43;nan;101330.50;4998684;28;20030;-75
2023/01/29 10:22:24;;;;;;;17.65;8.05;;;;;;;1.52;nan;101328.84;4997658;28;20107;-74
2023/01/29 10:25:12;;;;;;;18.25;7.72;;;;;;;1.44;nan;101317.38;4996745;28;20023;-74
2023/01/29 10:27:40;;;;;;;20.55;7.95;;;;;;;1.49;nan;101314.38;4994737;28;20112;-73
2023/01/29 10:30:19;;;;;;;17.50;7.38;;;;;;;1.49;nan;101301.38;4999954;28;20048;-74
2023/01/29 10:32:47;;;;;;;17.15;7.45;;;;;;;1.62;nan;101314.84;5000874;28;20053;-74
2023/01/29 10:35:15;;;;;;;18.52;7.88;;;;;;;1.65;nan;101319.75;4994837;28;20038;-73
2023/01/29 10:37:42;;;;;;;18.70;7.65;;;;;;;1.57;nan;101305.84;4994682;28;20456;-73
2023/01/29 10:40:35;;;;;;;19.25;7.60;;;;;;;1.70;nan;101319.34;5011269;28;20032;-74
2023/01/29 10:43:14;;;;;;;18.27;7.00;;;;;;;1.68;nan;101308.28;4996619;28;20041;-75
2023/01/29 10:46:02;;;;;;;18.30;7.53;;;;;;;1.75;nan;101317.13;5013359;28;20488;-75
2023/01/29 10:48:37;;;;;;;19.17;8.63;;;;;;;1.72;nan;101308.78;4998561;28;20100;-75
2023/01/29 10:51:48;;;;;;;18.67;8.00;;;;;;;1.87;nan;101317.75;4997503;28;20037;-74
2023/01/29 10:54:14;;;;;;;24.42;8.75;;;;;;;1.95;nan;101315.22;4998593;28;20054;-74
2023/01/29 10:56:45;;;;;;;20.38;8.80;;;;;;;1.98;nan;101308.91;4998043;28;20022;-74
2023/01/29 10:59:35;;;;;;;16.67;6.95;;;;;;;2.12;nan;101313.63;4998668;28;20051;-74
2023/01/29 11:02:02;;;;;;;14.52;6.40;;;;;;;2.19;nan;101312.06;4999607;28;20586;-74
2023/01/29 11:04:30;;;;;;;14.25;7.18;;;;;;;2.22;nan;101316.16;5011315;28;20073;-73
2023/01/29 11:06:56;;;;;;;20.92;8.63;;;;;;;2.17;nan;101310.59;4997475;28;20030;-72
2023/01/29 11:09:31;;;;;;;16.85;7.25;;;;;;;2.27;nan;101306.94;5010458;28;20037;-74
2023/01/29 11:12:08;;;;;;;14.27;7.05;;;;;;;2.33;nan;101316.75;4995493;28;20193;-74
2023/01/29 11:14:45;;;;;;;15.63;6.45;;;;;;;2.32;nan;101302.13;4999277;28;20038;-74
2023/01/29 11:17:17;;;;;;;19.42;6.78;;;;;;;2.38;nan;101312.91;4997696;28;20387;-73
2023/01/29 11:19:45;;;;;;;14.18;7.07;;;;;;;2.35;nan;101306.22;4999099;28;20041;-73
2023/01/29 11:22:14;;;;;;;15.65;6.60;;;;;;;2.21;nan;101304.94;4999353;28;20025;-75
2023/01/29 11:24:39;;;;;;;16.35;7.07;;;;;;;2.18;nan;101304.41;4997577;28;20030;-75
2023/01/29 11:27:32;;;;;;;17.90;7.47;;;;;;;2.23;nan;101313.41;5000892;28;20068;-74
2023/01/29 11:29:58;;;;;;;15.13;6.97;;;;;;;2.18;nan;101297.47;5000418;28;20026;-72
2023/01/29 11:32:27;;;;;;;18.00;7.68;;;;;;;2.13;nan;101305.69;4998839;28;20495;-72
2023/01/29 11:35:21;;;;;;;16.05;7.53;;;;;;;2.28;nan;101316.38;4996836;28;20713;-74
2023/01/29 11:37:47;;;;;;;17.13;7.72;;;;;;;2.33;nan;101323.75;4997870;28;20036;-74
2023/01/29 11:40:18;;;;;;;18.08;7.63;;;;;;;2.36;nan;101313.03;4997251;28;20030;-75
2023/01/29 11:42:47;;;;;;;13.60;6.68;;;;;;;2.33;nan;101319.34;5018565;28;20151;-73
2023/01/29 11:45:19;;;;;;;15.90;6.63;;;;;;;2.29;nan;101318.00;4999279;28;20026;-74
2023/01/29 11:47:49;;;;;;;16.38;7.68;;;;;;;2.25;nan;101314.09;5000686;28;20156;-74
2023/01/29 11:50:22;;;;;;;15.90;7.45;;;;;;;2.26;nan;101315.72;4999539;28;20026;-74
2023/01/29 11:52:48;;;;;;;17.73;7.20;;;;;;;2.15;nan;101294.31;5000403;28;20120;-74
2023/01/29 11:55:20;;;;;;;17.80;7.18;;;;;;;2.13;nan;101297.06;4994414;28;20608;-74
2023/01/29 11:57:50;;;;;;;15.38;6.75;;;;;;;2.17;nan;101308.78;4996213;28;20030;-70
2023/01/29 12:00:23;;;;;;;14.32;7.00;;;;;;;2.07;nan;101300.25;5002830;28;20036;-70
2023/01/29 12:03:03;;;;;;;18.40;7.32;;;;;;;2.06;nan;101306.41;5014184;28;20053;-70
2023/01/29 12:05:29;;;;;;;19.65;8.45;;;;;;;2.00;nan;101305.22;4998339;28;20638;-70
2023/01/29 12:08:00;;;;;;;20.48;9.30;;;;;;;1.96;nan;101297.84;4997863;28;20038;-70
2023/01/29 12:10:40;;;;;;;19.30;7.20;;;;;;;1.91;nan;101304.28;5000660;28;20037;-70
2023/01/29 12:13:09;;;;;;;18.77;8.13;;;;;;;1.97;nan;101315.91;4999529;28;20065;-69
2023/01/29 12:15:39;;;;;;;17.25;7.93;;;;;;;1.92;nan;101316.34;5000066;28;20092;-71
2023/01/29 12:18:29;;;;;;;16.48;7.10;;;;;;;1.93;nan;101306.75;5004433;28;20021;-70
2023/01/29 12:21:02;;;;;;;16.17;6.93;;;;;;;1.89;nan;101311.44;5001754;28;20035;-71
2023/01/29 12:23:45;;;;;;;19.02;7.55;;;;;;;1.92;nan;101316.34;5000800;28;20049;-70
2023/01/29 12:26:23;;;;;;;16.42;7.22;;;;;;;1.80;nan;101303.72;4999698;28;20033;-69
2023/01/29 12:29:10;;;;;;;16.40;6.78;;;;;;;1.84;nan;101318.00;4998679;28;20021;-71
2023/01/29 12:32:23;;;;;;;16.83;7.18;;;;;;;1.83;nan;101314.59;5013050;28;20048;-71
2023/01/29 12:35:10;;;;;;;15.68;7.25;;;;;;;1.70;nan;101314.97;4961412;28;20538;-71
2023/01/29 12:38:01;;;;;;;20.38;8.60;;;;;;;1.72;nan;101314.78;4960227;28;20485;-72
2023/01/29 12:40:36;;;;;;;16.77;7.25;;;;;;;1.54;nan;101286.19;4961783;28;20142;-71
2023/01/29 12:43:10;;;;;;;17.70;7.45;;;;;;;1.61;nan;101305.44;4960674;28;20043;-70
2023/01/29 12:45:37;;;;;;;18.38;7.80;;;;;;;1.68;nan;101316.06;4962588;28;20035;-69
2023/01/29 12:48:13;;;;;;;21.63;8.63;;;;;;;1.62;nan;101304.44;4961282;28;20030;-70
2023/01/29 12:50:39;;;;;;;19.67;7.93;;;;;;;1.52;nan;101289.91;4963622;28;20039;-71
2023/01/29 12:53:23;;;;;;;21.05;8.52;;;;;;;1.64;nan;101315.50;4961568;28;20184;-70
2023/01/29 12:55:54;;;;;;;23.40;9.50;;;;;;;1.51;nan;101301.22;4960729;28;20046;-71
2023/01/29 12:58:30;;;;;;;24.50;10.23;;;;;;;1.59;nan;101311.72;4957004;28;20042;-72